TCMMCCHORD FLD (JOINT BASE LEWIS-MCCHORD)
METARs for airports near TCM, sorted by distance:
E 7 nm 537' KPLU 241215Z 00000KT 10SM OVC040 03/00 A2986
NW 8 nm 294' KTIW 241206Z 16005KT 10SM FEW024 SCT030 OVC036 04/M01 A2986
N 19 nm 432' KSEA 241153Z 14006KT 10SM OVC021 04/01 A2987
SW 20 nm 207' KOLM 241154Z 20003KT 10SM BKN038 OVC070 02/01 A2987
NE 23 nm 32' KRNT 241153Z 12003KT 10SM -RA BKN023 BKN029 OVC039 04/01 A2989
NW 24 nm 444' KPWT 241228Z 19003KT 10SM UP SCT009 OVC016 03/02 A2985
N 24 nm 21' KBFI 241153Z 15007KT 10SM OVC023 03/02 A2989
W 27 nm 272' KSHN 241153Z 00000KT 5SM -RA BR SCT014 BKN027 OVC034 03/03 A2984
SW 34 nm 177' KCLS 241215Z 18006KT 10SM BKN032 OVC041 04/02 A2987
N 46 nm 607' KPAE 241227Z VRB05KT 2SM -RA BR OVC004 02/01 A2985
W 60 nm 17' KHQM 241204Z 11007KT 10SM -RA BKN009 OVC021 04/03 A2984
N 62 nm 141' KAWO 241156Z 35005KT 10SM OVC019 02/00 A2989
S 63 nm 20' KKLS 241156Z 17005KT 10SM BKN045 OVC090 04/02 A2991
NW 71 nm 13' KNOW 241215Z 10007KT 10SM BKN050 OVC060 04/01 A2982
NW 72 nm 291' KCLM 241153Z 00000KT 10SM OVC050 02/00 A2982
N 73 nm 47' KNUW 241156Z 12010KT 10SM SCT010 BKN015 OVC030 04/01 A2990
E 79 nm 1763' KELN 241153Z 00000KT 10SM OVC120 M02/M06 A2983
N 80 nm 145' KBVS 241215Z 00000KT 10SM OVC021 03/00 A2987
SW 82 nm 14' KAST 241155Z 13005KT 10SM -RA OVC016 04/03 A2986
S 83 nm 58' KSPB 241153Z 00000KT 10SM FEW036 BKN048 OVC110 03/01 A2991
N 86 nm 112' KFHR 241153Z 13010KT 10SM OVC013 04/01 A2986
E 86 nm 1098' KYKM 241153Z 00000KT 7SM CLR M05/M07 A2988
S 91 nm 28' KVUO 241153Z 11004KT 10SM BKN045 OVC050 04/00 A2991
S 93 nm 30' KPDX 241153Z 11006KT 10SM OVC046 04/01 A2992
E 93 nm 1248' KEAT 241155Z 23004KT 10SM OVC090 M04/M07 A2989
S 95 nm 38' KTTD 241153Z 00000KT 10SM OVC042 05/00 A2992
N 95 nm 34' KORS 241235Z 17008KT 10SM BKN022 BKN037 OVC060 05/02 A2983
NW 97 nm 193' KUIL 241153Z 15005KT 9SM -RA OVC013 04/03 A2979
S 97 nm 207' KHIO 241213Z 13003KT 10SM FEW027 BKN041 OVC120 03/02 A2990
NW 98 nm 64' CYYJ 241200Z 12009KT 5SM -RA BR FEW009 BKN015 OVC037 04/03 A2983
N 99 nm 171' KBLI 241153Z 04005KT 10SM FEW035 FEW043 OVC065 01/M02 A2986
TAFs for airports near TCM, sorted by distance:
N 19 nm 432' KSEA KSEA 241143Z 2412/2518 15006KT P6SM -RA OVC012
  FM242100 18010KT P6SM SCT008 BKN015 OVC025
SW 20 nm 207' KOLM KOLM 241143Z 2412/2512 20006KT P6SM -RA OVC030
  FM241600 20006KT P6SM -RA SCT012 BKN020 OVC030
  FM242200 22006KT P6SM SCT008 BKN015 OVC025
NW 24 nm 444' KPWT TAF KPWT 241143Z 2412/2512 19006KT P6SM -RA SCT003 OVC006
  TEMPO 2414/2418 3SM -RA OVC003
  FM242100 19006KT P6SM OVC006
N 24 nm 21' KBFI KBFI 241143Z 2412/2512 14006KT P6SM -RA OVC016
  FM242100 16008KT P6SM SCT012 BKN020 OVC030
N 46 nm 607' KPAE KPAE 241143Z 2412/2512 15006KT 4SM -RA SCT006 OVC012
  TEMPO 2412/2416 2SM -RASN BKN006 OVC012
  FM241600 15006KT 4SM -RA SCT006 OVC012
  TEMPO 2416/2420 2SM -RASN BKN006 OVC012
  FM242000 17010KT P6SM SCT006 BKN011 OVC018
W 60 nm 17' KHQM KHQM 241143Z 2412/2512 11008KT 4SM -RA OVC008
  FM241800 23012KT 6SM BR VCSH OVC010
  FM250200 23012KT P6SM SCT010 BKN018 OVC025
  FM250600 23012KT P6SM SCT020 BKN035
NW 72 nm 291' KCLM TAF KCLM 241143Z 2412/2512 VRB03KT P6SM SCT030 OVC060
  FM242000 VRB03KT P6SM SCT015 BKN025 OVC040
  FM250200 27008KT P6SM BKN015 OVC025
SW 82 nm 14' KAST KAST 241130Z 2412/2512 14010KT P6SM RA BKN015 OVC035
  FM241500 16011KT 5SM -RA BR BKN015 OVC030
  FM241800 19011G19KT 3SM RA BR BKN008 OVC020
  FM242000 29015G25KT 4SM -SHRA SCT008 BKN015 OVC030
  FM250100 30012G24KT P6SM -SHRA SCT010 BKN022 OVC040
  FM250500 29010KT P6SM -SHRA SCT015 BKN035 BKN050
E 86 nm 1098' KYKM TAF KYKM 241120Z 2412/2512 29005KT P6SM OVC150
  TEMPO 2412/2415 5SM BR SCT010
  FM241800 VRB02KT P6SM OVC100
  FM242000 VRB03KT 3SM -SN OVC030
  FM250300 27003KT 6SM BR VCSH OVC030
  FM250800 29004KT P6SM OVC050
S 93 nm 30' KPDX KPDX 241130Z 2412/2512 09004KT P6SM BKN035 OVC045
  FM241400 14008KT P6SM -RA BKN015 OVC035
  FM241700 12009KT 4SM -RA BR BKN009 OVC018
  FM242100 19011KT 5SM -RA BR SCT008 BKN015 OVC025
  FM250100 26010KT P6SM -SHRA SCT012 BKN022 OVC035
  FM250500 22008KT P6SM -SHRA BKN022 OVC040
E 93 nm 1248' KEAT TAF KEAT 241132Z 2412/2512 00000KT P6SM BKN120 OVC200
  FM241600 VRB03KT P6SM OVC025
  FM242000 VRB03KT 2SM -SN BR OVC018
  FM242200 VRB04KT 1 1/2SM -SN BR OVC015
  FM250300 00000KT P6SM BKN010 PROB30 2503/2504 4SM -SN BR OVC008
S 95 nm 38' KTTD TAF KTTD 241130Z 2412/2512 10005KT P6SM OVC040
  FM241400 11008KT P6SM -RA OVC028
  FM241700 10008KT 4SM -RA SCT008 OVC016
  FM242100 14009KT 4SM -RA BR BKN008 OVC018
  FM250100 25009KT P6SM -SHRA BKN015 OVC035
  FM250600 24006KT P6SM -SHRA BKN022 OVC040
S 97 nm 207' KHIO KHIO 241130Z 2412/2512 00000KT P6SM OVC035
  FM241300 14006KT P6SM -RA OVC028
  FM241600 12006KT 3SM -RA BR BKN007 OVC020
  FM242100 20010KT 4SM -RA BR SCT007 OVC020
  FM250000 28010KT P6SM -SHRA SCT007 BKN022 OVC040
  FM250400 24006KT P6SM -SHRA BKN025 OVC045
N 99 nm 171' KBLI KBLI 241143Z 2412/2512 03006KT P6SM SCT030 OVC060
  FM242000 16008KT P6SM SCT015 BKN025 OVC040

Shortcut to this page: http://wxbay.com.

Data may contain errors.